sensor_id;sensor_type;location;lat;lon;timestamp;pressure;altitude;pressure_sealevel;temperature;humidity
63339;BME280;47485;51.378;-1.342;2023-04-25T00:01:31;100137.71;;;4.91;28.52
63339;BME280;47485;51.378;-1.342;2023-04-25T00:03:58;100146.10;;;5.55;28.82
63339;BME280;47485;51.378;-1.342;2023-04-25T00:06:25;100148.16;;;6.20;28.72
63339;BME280;47485;51.378;-1.342;2023-04-25T00:08:52;100150.72;;;5.29;28.93
63339;BME280;47485;51.378;-1.342;2023-04-25T00:11:19;100146.80;;;5.55;28.68
63339;BME280;47485;51.378;-1.342;2023-04-25T00:13:47;100149.18;;;4.91;29.11
63339;BME280;47485;51.378;-1.342;2023-04-25T00:16:14;100147.14;;;4.74;28.46
63339;BME280;47485;51.378;-1.342;2023-04-25T00:18:42;100148.18;;;4.58;28.64
63339;BME280;47485;51.378;-1.342;2023-04-25T00:21:09;100148.57;;;4.92;28.74
63339;BME280;47485;51.378;-1.342;2023-04-25T00:23:37;100148.51;;;5.58;28.95
63339;BME280;47485;51.378;-1.342;2023-04-25T00:26:04;100148.49;;;4.18;28.89
63339;BME280;47485;51.378;-1.342;2023-04-25T00:28:31;100156.25;;;4.22;28.71
63339;BME280;47485;51.378;-1.342;2023-04-25T00:30:58;100156.45;;;5.93;27.94
63339;BME280;47485;51.378;-1.342;2023-04-25T00:33:26;100157.36;;;5.41;28.20
63339;BME280;47485;51.378;-1.342;2023-04-25T00:35:53;100156.73;;;7.48;26.76
63339;BME280;47485;51.378;-1.342;2023-04-25T00:38:21;100164.10;;;5.13;28.11
63339;BME280;47485;51.378;-1.342;2023-04-25T00:40:48;100157.43;;;8.57;26.37
63339;BME280;47485;51.378;-1.342;2023-04-25T00:43:16;100167.12;;;4.81;27.63
63339;BME280;47485;51.378;-1.342;2023-04-25T00:45:43;100170.01;;;5.95;28.69
63339;BME280;47485;51.378;-1.342;2023-04-25T00:48:10;100169.38;;;4.22;28.51
63339;BME280;47485;51.378;-1.342;2023-04-25T00:50:38;100167.06;;;5.17;27.32
63339;BME280;47485;51.378;-1.342;2023-04-25T00:53:05;100164.65;;;3.92;28.84
63339;BME280;47485;51.378;-1.342;2023-04-25T00:55:32;100169.49;;;5.55;28.58
63339;BME280;47485;51.378;-1.342;2023-04-25T00:58:00;100168.71;;;6.21;26.84
63339;BME280;47485;51.378;-1.342;2023-04-25T01:00:27;100176.85;;;4.83;28.24
63339;BME280;47485;51.378;-1.342;2023-04-25T01:02:54;100178.12;;;6.55;26.66
63339;BME280;47485;51.378;-1.342;2023-04-25T01:05:21;100182.31;;;4.53;27.68
63339;BME280;47485;51.378;-1.342;2023-04-25T01:07:48;100184.71;;;6.87;26.39
63339;BME280;47485;51.378;-1.342;2023-04-25T01:10:15;100186.67;;;4.61;27.67
63339;BME280;47485;51.378;-1.342;2023-04-25T01:12:42;100185.41;;;6.08;26.75
63339;BME280;47485;51.378;-1.342;2023-04-25T01:15:10;100186.29;;;5.17;27.24
63339;BME280;47485;51.378;-1.342;2023-04-25T01:17:37;100187.75;;;4.18;27.66
63339;BME280;47485;51.378;-1.342;2023-04-25T01:20:06;100187.97;;;8.10;25.66
63339;BME280;47485;51.378;-1.342;2023-04-25T01:22:33;100188.91;;;6.81;26.44
63339;BME280;47485;51.378;-1.342;2023-04-25T01:25:02;100190.90;;;6.90;26.97
63339;BME280;47485;51.378;-1.342;2023-04-25T01:27:29;100188.77;;;5.30;26.99
63339;BME280;47485;51.378;-1.342;2023-04-25T01:29:57;100183.21;;;5.10;27.39
63339;BME280;47485;51.378;-1.342;2023-04-25T01:32:24;100184.07;;;4.97;27.30
63339;BME280;47485;51.378;-1.342;2023-04-25T01:34:52;100184.41;;;7.56;25.33
63339;BME280;47485;51.378;-1.342;2023-04-25T01:37:19;100186.56;;;5.99;27.11
63339;BME280;47485;51.378;-1.342;2023-04-25T01:39:47;100190.12;;;3.97;26.98
63339;BME280;47485;51.378;-1.342;2023-04-25T01:42:14;100189.15;;;6.70;26.27
63339;BME280;47485;51.378;-1.342;2023-04-25T01:44:41;100191.62;;;5.86;25.78
63339;BME280;47485;51.378;-1.342;2023-04-25T01:47:08;100195.30;;;4.74;26.63
63339;BME280;47485;51.378;-1.342;2023-04-25T01:49:36;100195.47;;;5.25;26.29
63339;BME280;47485;51.378;-1.342;2023-04-25T01:52:02;100195.56;;;8.07;24.69
63339;BME280;47485;51.378;-1.342;2023-04-25T01:54:30;100194.95;;;6.65;26.49
63339;BME280;47485;51.378;-1.342;2023-04-25T01:56:57;100199.55;;;3.78;28.62
63339;BME280;47485;51.378;-1.342;2023-04-25T01:59:24;100202.79;;;4.98;27.51
63339;BME280;47485;51.378;-1.342;2023-04-25T02:01:51;100202.98;;;3.60;27.29
63339;BME280;47485;51.378;-1.342;2023-04-25T02:04:18;100207.49;;;4.12;27.01
63339;BME280;47485;51.378;-1.342;2023-04-25T02:06:45;100211.57;;;4.62;27.24
63339;BME280;47485;51.378;-1.342;2023-04-25T02:09:11;100210.07;;;5.35;26.57
63339;BME280;47485;51.378;-1.342;2023-04-25T02:11:38;100208.41;;;8.14;25.15
63339;BME280;47485;51.378;-1.342;2023-04-25T02:14:05;100212.09;;;4.68;26.84
63339;BME280;47485;51.378;-1.342;2023-04-25T02:16:32;100212.09;;;7.04;25.87
63339;BME280;47485;51.378;-1.342;2023-04-25T02:18:59;100212.50;;;4.17;27.15
63339;BME280;47485;51.378;-1.342;2023-04-25T02:21:26;100213.31;;;3.87;27.25
63339;BME280;47485;51.378;-1.342;2023-04-25T02:23:53;100218.04;;;4.56;26.38
63339;BME280;47485;51.378;-1.342;2023-04-25T02:26:20;100216.32;;;5.32;25.35
63339;BME280;47485;51.378;-1.342;2023-04-25T02:28:48;100219.62;;;4.08;26.98
63339;BME280;47485;51.378;-1.342;2023-04-25T02:31:15;100221.96;;;5.80;26.09
63339;BME280;47485;51.378;-1.342;2023-04-25T02:33:42;100218.82;;;5.43;25.58
63339;BME280;47485;51.378;-1.342;2023-04-25T02:36:10;100216.59;;;7.01;25.60
63339;BME280;47485;51.378;-1.342;2023-04-25T02:38:37;100221.77;;;3.71;26.88
63339;BME280;47485;51.378;-1.342;2023-04-25T02:41:04;100223.07;;;5.57;26.21
63339;BME280;47485;51.378;-1.342;2023-04-25T02:43:31;100219.20;;;6.12;26.49
63339;BME280;47485;51.378;-1.342;2023-04-25T02:45:59;100217.37;;;4.99;27.01
63339;BME280;47485;51.378;-1.342;2023-04-25T02:48:27;100219.60;;;5.02;25.65
63339;BME280;47485;51.378;-1.342;2023-04-25T02:50:53;100218.88;;;6.44;24.90
63339;BME280;47485;51.378;-1.342;2023-04-25T02:53:20;100217.06;;;5.19;25.72
63339;BME280;47485;51.378;-1.342;2023-04-25T02:55:48;100215.33;;;5.63;24.97
63339;BME280;47485;51.378;-1.342;2023-04-25T02:58:15;100216.93;;;5.79;25.30
63339;BME280;47485;51.378;-1.342;2023-04-25T03:00:42;100217.61;;;6.37;24.49
63339;BME280;47485;51.378;-1.342;2023-04-25T03:03:09;100217.35;;;6.56;24.99
63339;BME280;47485;51.378;-1.342;2023-04-25T03:05:36;100221.00;;;6.53;24.59
63339;BME280;47485;51.378;-1.342;2023-04-25T03:08:04;100226.12;;;8.23;24.07
63339;BME280;47485;51.378;-1.342;2023-04-25T03:10:31;100231.12;;;7.71;24.16
63339;BME280;47485;51.378;-1.342;2023-04-25T03:12:58;100235.86;;;6.85;25.13
63339;BME280;47485;51.378;-1.342;2023-04-25T03:15:26;100231.43;;;7.40;24.87
63339;BME280;47485;51.378;-1.342;2023-04-25T03:17:53;100236.15;;;7.41;25.40
63339;BME280;47485;51.378;-1.342;2023-04-25T03:20:20;100242.65;;;4.67;26.81
63339;BME280;47485;51.378;-1.342;2023-04-25T03:22:48;100243.83;;;6.66;25.79
63339;BME280;47485;51.378;-1.342;2023-04-25T03:25:16;100243.26;;;6.43;25.79
63339;BME280;47485;51.378;-1.342;2023-04-25T03:27:43;100243.79;;;6.99;26.13
63339;BME280;47485;51.378;-1.342;2023-04-25T03:30:10;100244.99;;;6.76;25.59
63339;BME280;47485;51.378;-1.342;2023-04-25T03:32:37;100246.78;;;6.59;25.51
63339;BME280;47485;51.378;-1.342;2023-04-25T03:35:05;100247.91;;;7.23;25.69
63339;BME280;47485;51.378;-1.342;2023-04-25T03:37:32;100247.24;;;5.95;25.95
63339;BME280;47485;51.378;-1.342;2023-04-25T03:39:59;100246.82;;;6.99;26.41
63339;BME280;47485;51.378;-1.342;2023-04-25T03:42:26;100250.59;;;6.49;26.04
63339;BME280;47485;51.378;-1.342;2023-04-25T03:44:53;100258.90;;;6.90;26.21
63339;BME280;47485;51.378;-1.342;2023-04-25T03:47:20;100263.08;;;7.24;26.60
63339;BME280;47485;51.378;-1.342;2023-04-25T03:49:47;100268.42;;;7.26;27.24
63339;BME280;47485;51.378;-1.342;2023-04-25T03:52:14;100277.63;;;5.80;27.50
63339;BME280;47485;51.378;-1.342;2023-04-25T03:54:41;100283.74;;;5.90;27.44
63339;BME280;47485;51.378;-1.342;2023-04-25T03:57:08;100286.71;;;5.81;27.58
63339;BME280;47485;51.378;-1.342;2023-04-25T03:59:35;100294.67;;;5.12;27.73
63339;BME280;47485;51.378;-1.342;2023-04-25T04:02:02;100295.35;;;6.08;27.74
63339;BME280;47485;51.378;-1.342;2023-04-25T04:04:30;100289.17;;;5.09;27.95
63339;BME280;47485;51.378;-1.342;2023-04-25T04:06:57;100287.09;;;6.23;27.21
63339;BME280;47485;51.378;-1.342;2023-04-25T04:09:24;100292.31;;;6.61;27.31
63339;BME280;47485;51.378;-1.342;2023-04-25T04:11:51;100301.33;;;4.94;27.88
63339;BME280;47485;51.378;-1.342;2023-04-25T04:14:18;100306.89;;;4.43;29.03
63339;BME280;47485;51.378;-1.342;2023-04-25T04:16:45;100307.44;;;4.77;29.11
63339;BME280;47485;51.378;-1.342;2023-04-25T04:19:11;100305.48;;;2.86;30.13
63339;BME280;47485;51.378;-1.342;2023-04-25T04:21:38;100304.84;;;1.15;31.31
63339;BME280;47485;51.378;-1.342;2023-04-25T04:24:06;100302.49;;;4.18;28.27
63339;BME280;47485;51.378;-1.342;2023-04-25T04:26:33;100302.29;;;5.23;26.33
63339;BME280;47485;51.378;-1.342;2023-04-25T04:29:01;100307.07;;;5.05;26.67
63339;BME280;47485;51.378;-1.342;2023-04-25T04:31:28;100304.69;;;4.64;26.68
63339;BME280;47485;51.378;-1.342;2023-04-25T04:33:55;100303.09;;;5.07;26.70
63339;BME280;47485;51.378;-1.342;2023-04-25T04:36:22;100302.51;;;6.25;26.73
63339;BME280;47485;51.378;-1.342;2023-04-25T04:38:49;100305.40;;;5.02;27.08
63339;BME280;47485;51.378;-1.342;2023-04-25T04:41:16;100311.54;;;4.11;26.64
63339;BME280;47485;51.378;-1.342;2023-04-25T04:43:43;100321.59;;;6.40;26.27
63339;BME280;47485;51.378;-1.342;2023-04-25T04:46:10;100332.64;;;4.41;27.68
63339;BME280;47485;51.378;-1.342;2023-04-25T04:48:37;100336.09;;;5.01;28.82
63339;BME280;47485;51.378;-1.342;2023-04-25T04:51:04;100337.31;;;5.09;29.06
63339;BME280;47485;51.378;-1.342;2023-04-25T04:53:31;100334.80;;;4.28;28.87
63339;BME280;47485;51.378;-1.342;2023-04-25T04:55:58;100338.87;;;4.35;29.20
63339;BME280;47485;51.378;-1.342;2023-04-25T04:58:25;100341.40;;;2.59;30.02
63339;BME280;47485;51.378;-1.342;2023-04-25T05:00:52;100337.02;;;3.10;29.35
63339;BME280;47485;51.378;-1.342;2023-04-25T05:03:19;100342.11;;;5.11;26.57
63339;BME280;47485;51.378;-1.342;2023-04-25T05:05:46;100347.00;;;6.69;25.87
63339;BME280;47485;51.378;-1.342;2023-04-25T05:08:13;100355.30;;;6.59;26.60
63339;BME280;47485;51.378;-1.342;2023-04-25T05:10:40;100364.46;;;4.48;28.44
63339;BME280;47485;51.378;-1.342;2023-04-25T05:13:07;100373.51;;;3.24;29.98
63339;BME280;47485;51.378;-1.342;2023-04-25T05:15:34;100376.75;;;3.22;31.02
63339;BME280;47485;51.378;-1.342;2023-04-25T05:18:02;100383.39;;;1.52;32.07
63339;BME280;47485;51.378;-1.342;2023-04-25T05:20:29;100377.82;;;2.54;31.86
63339;BME280;47485;51.378;-1.342;2023-04-25T05:22:55;100375.46;;;2.24;31.79
63339;BME280;47485;51.378;-1.342;2023-04-25T05:25:22;100380.38;;;1.82;32.63
63339;BME280;47485;51.378;-1.342;2023-04-25T05:27:50;100385.51;;;2.41;30.12
63339;BME280;47485;51.378;-1.342;2023-04-25T05:30:17;100387.64;;;6.20;28.21
63339;BME280;47485;51.378;-1.342;2023-04-25T05:32:44;100385.24;;;4.87;28.24
63339;BME280;47485;51.378;-1.342;2023-04-25T05:35:11;100383.25;;;1.83;29.51
63339;BME280;47485;51.378;-1.342;2023-04-25T05:37:38;100386.78;;;3.47;28.83
63339;BME280;47485;51.378;-1.342;2023-04-25T05:40:06;100385.50;;;5.82;26.73
63339;BME280;47485;51.378;-1.342;2023-04-25T05:42:33;100393.24;;;6.99;26.57
63339;BME280;47485;51.378;-1.342;2023-04-25T05:45:01;100393.93;;;5.82;26.93
63339;BME280;47485;51.378;-1.342;2023-04-25T05:47:28;100400.72;;;5.89;27.81
63339;BME280;47485;51.378;-1.342;2023-04-25T05:49:55;100399.72;;;4.34;28.34
63339;BME280;47485;51.378;-1.342;2023-04-25T05:52:21;100401.90;;;4.20;28.61
63339;BME280;47485;51.378;-1.342;2023-04-25T05:54:49;100403.60;;;4.38;29.22
63339;BME280;47485;51.378;-1.342;2023-04-25T05:57:22;100401.71;;;4.93;29.73
63339;BME280;47485;51.378;-1.342;2023-04-25T05:59:49;100396.96;;;4.26;29.46
63339;BME280;47485;51.378;-1.342;2023-04-25T06:02:18;100396.71;;;5.42;28.61
63339;BME280;47485;51.378;-1.342;2023-04-25T06:04:45;100400.91;;;4.40;28.51
63339;BME280;47485;51.378;-1.342;2023-04-25T06:07:13;100407.07;;;5.36;29.55
63339;BME280;47485;51.378;-1.342;2023-04-25T06:09:39;100416.63;;;3.38;30.90
63339;BME280;47485;51.378;-1.342;2023-04-25T06:12:06;100426.81;;;3.10;31.65
63339;BME280;47485;51.378;-1.342;2023-04-25T06:14:34;100430.64;;;3.02;32.05
63339;BME280;47485;51.378;-1.342;2023-04-25T06:17:02;100428.75;;;4.06;31.75
63339;BME280;47485;51.378;-1.342;2023-04-25T06:19:29;100427.74;;;2.75;31.48
63339;BME280;47485;51.378;-1.342;2023-04-25T06:21:56;100429.22;;;1.27;31.96
63339;BME280;47485;51.378;-1.342;2023-04-25T06:24:23;100425.67;;;2.96;30.70
63339;BME280;47485;51.378;-1.342;2023-04-25T06:26:51;100426.71;;;2.66;30.64
63339;BME280;47485;51.378;-1.342;2023-04-25T06:29:17;100431.49;;;4.56;30.14
63339;BME280;47485;51.378;-1.342;2023-04-25T06:31:44;100431.31;;;4.76;28.98
63339;BME280;47485;51.378;-1.342;2023-04-25T06:34:11;100436.92;;;3.09;29.01
63339;BME280;47485;51.378;-1.342;2023-04-25T06:36:38;100444.38;;;0.52;31.65
63339;BME280;47485;51.378;-1.342;2023-04-25T06:39:05;100439.92;;;3.25;31.57
63339;BME280;47485;51.378;-1.342;2023-04-25T06:41:32;100440.73;;;3.71;30.57
63339;BME280;47485;51.378;-1.342;2023-04-25T06:43:59;100440.45;;;3.52;31.24
63339;BME280;47485;51.378;-1.342;2023-04-25T06:46:26;100446.52;;;-1.18;32.75
63339;BME280;47485;51.378;-1.342;2023-04-25T06:48:54;100448.38;;;-2.48;33.98
63339;BME280;47485;51.378;-1.342;2023-04-25T06:51:22;100447.93;;;-1.99;33.89
63339;BME280;47485;51.378;-1.342;2023-04-25T06:53:49;100446.51;;;-0.42;33.47
63339;BME280;47485;51.378;-1.342;2023-04-25T06:56:16;100453.49;;;-2.91;36.77
63339;BME280;47485;51.378;-1.342;2023-04-25T06:58:43;100457.59;;;-3.04;37.11
63339;BME280;47485;51.378;-1.342;2023-04-25T07:01:10;100456.98;;;-2.38;35.78
63339;BME280;47485;51.378;-1.342;2023-04-25T07:03:37;100459.74;;;-0.24;34.28
63339;BME280;47485;51.378;-1.342;2023-04-25T07:06:05;100464.42;;;0.56;34.17
63339;BME280;47485;51.378;-1.342;2023-04-25T07:08:32;100467.08;;;-1.60;34.34
63339;BME280;47485;51.378;-1.342;2023-04-25T07:10:59;100463.50;;;0.12;33.22
63339;BME280;47485;51.378;-1.342;2023-04-25T07:13:25;100460.25;;;1.07;31.58
63339;BME280;47485;51.378;-1.342;2023-04-25T07:15:52;100456.67;;;3.12;29.64
63339;BME280;47485;51.378;-1.342;2023-04-25T07:18:19;100457.88;;;-1.10;33.24
63339;BME280;47485;51.378;-1.342;2023-04-25T07:20:45;100457.07;;;-0.39;33.07
63339;BME280;47485;51.378;-1.342;2023-04-25T07:23:12;100448.56;;;0.73;30.90
63339;BME280;47485;51.378;-1.342;2023-04-25T07:25:39;100448.10;;;1.68;29.58
63339;BME280;47485;51.378;-1.342;2023-04-25T07:28:06;100449.77;;;2.41;29.12
63339;BME280;47485;51.378;-1.342;2023-04-25T07:30:32;100452.93;;;1.14;29.99
63339;BME280;47485;51.378;-1.342;2023-04-25T07:33:00;100454.76;;;1.47;30.46
63339;BME280;47485;51.378;-1.342;2023-04-25T07:35:27;100462.25;;;-0.20;32.40
63339;BME280;47485;51.378;-1.342;2023-04-25T07:37:53;100466.44;;;-0.39;33.29
63339;BME280;47485;51.378;-1.342;2023-04-25T07:40:20;100462.53;;;2.14;30.67
63339;BME280;47485;51.378;-1.342;2023-04-25T07:42:47;100462.27;;;1.71;30.83
63339;BME280;47485;51.378;-1.342;2023-04-25T07:45:14;100460.81;;;2.29;28.84
63339;BME280;47485;51.378;-1.342;2023-04-25T07:47:40;100462.07;;;1.75;28.56
63339;BME280;47485;51.378;-1.342;2023-04-25T07:50:08;100465.04;;;2.33;28.65
63339;BME280;47485;51.378;-1.342;2023-04-25T07:52:35;100467.98;;;1.74;28.27
63339;BME280;47485;51.378;-1.342;2023-04-25T07:55:02;100463.61;;;2.09;28.12
63339;BME280;47485;51.378;-1.342;2023-04-25T07:57:29;100463.56;;;4.36;26.61
63339;BME280;47485;51.378;-1.342;2023-04-25T07:59:56;100468.27;;;1.88;27.88
63339;BME280;47485;51.378;-1.342;2023-04-25T08:02:23;100466.08;;;1.78;28.06
63339;BME280;47485;51.378;-1.342;2023-04-25T08:04:49;100465.89;;;1.62;28.06
63339;BME280;47485;51.378;-1.342;2023-04-25T08:07:17;100465.61;;;3.46;26.71
63339;BME280;47485;51.378;-1.342;2023-04-25T08:09:44;100464.49;;;3.71;25.62
63339;BME280;47485;51.378;-1.342;2023-04-25T08:12:11;100467.00;;;3.06;28.29
63339;BME280;47485;51.378;-1.342;2023-04-25T08:14:38;100471.81;;;4.82;26.44
63339;BME280;47485;51.378;-1.342;2023-04-25T08:17:04;100475.98;;;4.76;25.98
63339;BME280;47485;51.378;-1.342;2023-04-25T08:19:31;100476.16;;;2.02;26.79
63339;BME280;47485;51.378;-1.342;2023-04-25T08:21:58;100480.74;;;4.24;25.55
63339;BME280;47485;51.378;-1.342;2023-04-25T08:24:24;100483.55;;;2.44;26.95
63339;BME280;47485;51.378;-1.342;2023-04-25T08:26:51;100482.89;;;4.00;27.16
63339;BME280;47485;51.378;-1.342;2023-04-25T08:29:18;100489.54;;;2.47;26.39
63339;BME280;47485;51.378;-1.342;2023-04-25T08:31:45;100485.50;;;3.97;25.40
63339;BME280;47485;51.378;-1.342;2023-04-25T08:34:12;100486.48;;;2.70;26.42
63339;BME280;47485;51.378;-1.342;2023-04-25T08:36:38;100482.73;;;3.67;25.57
63339;BME280;47485;51.378;-1.342;2023-04-25T08:39:05;100488.79;;;1.42;25.13
63339;BME280;47485;51.378;-1.342;2023-04-25T08:41:32;100488.08;;;3.51;26.25
63339;BME280;47485;51.378;-1.342;2023-04-25T08:43:59;100490.63;;;4.33;25.30
63339;BME280;47485;51.378;-1.342;2023-04-25T08:46:27;100488.94;;;4.41;25.00
63339;BME280;47485;51.378;-1.342;2023-04-25T08:49:00;100496.06;;;2.59;27.42
63339;BME280;47485;51.378;-1.342;2023-04-25T08:51:31;100494.66;;;1.88;26.93
63339;BME280;47485;51.378;-1.342;2023-04-25T08:54:08;100493.15;;;3.77;25.32
63339;BME280;47485;51.378;-1.342;2023-04-25T08:56:36;100496.55;;;4.91;24.84
63339;BME280;47485;51.378;-1.342;2023-04-25T08:59:04;100495.46;;;4.28;24.50
63339;BME280;47485;51.378;-1.342;2023-04-25T09:01:32;100493.85;;;2.82;25.33
63339;BME280;47485;51.378;-1.342;2023-04-25T09:03:59;100494.12;;;3.20;24.45
63339;BME280;47485;51.378;-1.342;2023-04-25T09:06:25;100495.04;;;4.87;24.30
63339;BME280;47485;51.378;-1.342;2023-04-25T09:08:52;100492.57;;;4.60;23.27
63339;BME280;47485;51.378;-1.342;2023-04-25T09:11:19;100492.22;;;5.22;23.05
63339;BME280;47485;51.378;-1.342;2023-04-25T09:13:46;100491.63;;;3.51;24.65
63339;BME280;47485;51.378;-1.342;2023-04-25T09:16:13;100487.20;;;3.78;23.94
63339;BME280;47485;51.378;-1.342;2023-04-25T09:18:40;100482.53;;;5.04;24.00
63339;BME280;47485;51.378;-1.342;2023-04-25T09:21:08;100477.18;;;7.39;22.67
63339;BME280;47485;51.378;-1.342;2023-04-25T09:23:40;100479.69;;;4.28;24.04
63339;BME280;47485;51.378;-1.342;2023-04-25T09:26:08;100481.08;;;6.16;23.71
63339;BME280;47485;51.378;-1.342;2023-04-25T09:28:36;100494.40;;;0.86;25.03
63339;BME280;47485;51.378;-1.342;2023-04-25T09:31:03;100496.82;;;-2.31;27.00
63339;BME280;47485;51.378;-1.342;2023-04-25T09:33:32;100494.51;;;1.87;28.19
63339;BME280;47485;51.378;-1.342;2023-04-25T09:36:03;100494.84;;;4.11;25.21
63339;BME280;47485;51.378;-1.342;2023-04-25T09:38:30;100486.46;;;6.93;23.13
63339;BME280;47485;51.378;-1.342;2023-04-25T09:40:58;100484.17;;;4.57;24.77
63339;BME280;47485;51.378;-1.342;2023-04-25T09:43:26;100486.42;;;4.61;22.98
63339;BME280;47485;51.378;-1.342;2023-04-25T09:45:54;100485.06;;;6.50;20.18
63339;BME280;47485;51.378;-1.342;2023-04-25T09:48:22;100490.18;;;2.85;23.69
63339;BME280;47485;51.378;-1.342;2023-04-25T09:51:04;100485.14;;;2.61;25.81
63339;BME280;47485;51.378;-1.342;2023-04-25T09:53:32;100474.69;;;4.33;23.11
63339;BME280;47485;51.378;-1.342;2023-04-25T09:56:00;100472.50;;;5.48;20.82
63339;BME280;47485;51.378;-1.342;2023-04-25T09:58:30;100472.51;;;4.96;21.28
63339;BME280;47485;51.378;-1.342;2023-04-25T10:01:00;100479.20;;;-0.47;23.54
63339;BME280;47485;51.378;-1.342;2023-04-25T10:03:29;100478.21;;;0.38;25.05
63339;BME280;47485;51.378;-1.342;2023-04-25T10:05:59;100477.37;;;2.30;24.73
63339;BME280;47485;51.378;-1.342;2023-04-25T10:08:31;100477.77;;;1.78;28.88
63339;BME280;47485;51.378;-1.342;2023-04-25T10:11:01;100476.64;;;2.50;24.21
63339;BME280;47485;51.378;-1.342;2023-04-25T10:13:28;100477.78;;;2.40;21.92
63339;BME280;47485;51.378;-1.342;2023-04-25T10:15:55;100477.41;;;3.76;23.39
63339;BME280;47485;51.378;-1.342;2023-04-25T10:18:23;100478.00;;;1.57;24.20
63339;BME280;47485;51.378;-1.342;2023-04-25T10:20:51;100480.10;;;2.23;25.33
63339;BME280;47485;51.378;-1.342;2023-04-25T10:23:17;100482.89;;;2.42;25.13
63339;BME280;47485;51.378;-1.342;2023-04-25T10:25:44;100479.56;;;3.40;23.18
63339;BME280;47485;51.378;-1.342;2023-04-25T10:28:11;100483.58;;;0.08;23.08
63339;BME280;47485;51.378;-1.342;2023-04-25T10:30:57;100481.21;;;2.32;25.57
63339;BME280;47485;51.378;-1.342;2023-04-25T10:33:30;100479.14;;;4.19;23.11
63339;BME280;47485;51.378;-1.342;2023-04-25T10:35:58;100480.24;;;2.30;24.37
63339;BME280;47485;51.378;-1.342;2023-04-25T10:38:36;100478.98;;;2.90;23.90
63339;BME280;47485;51.378;-1.342;2023-04-25T10:41:05;100482.68;;;2.33;25.52
63339;BME280;47485;51.378;-1.342;2023-04-25T10:43:35;100476.23;;;3.50;23.09
63339;BME280;47485;51.378;-1.342;2023-04-25T10:46:03;100479.11;;;2.51;22.96
63339;BME280;47485;51.378;-1.342;2023-04-25T10:48:45;100476.61;;;6.55;22.40
63339;BME280;47485;51.378;-1.342;2023-04-25T10:51:17;100483.60;;;4.21;23.27
63339;BME280;47485;51.378;-1.342;2023-04-25T10:53:44;100479.62;;;2.95;22.45
63339;BME280;47485;51.378;-1.342;2023-04-25T10:56:12;100479.38;;;3.97;21.67
63339;BME280;47485;51.378;-1.342;2023-04-25T10:58:43;100474.43;;;4.40;21.05
63339;BME280;47485;51.378;-1.342;2023-04-25T11:01:12;100477.18;;;3.19;22.00
63339;BME280;47485;51.378;-1.342;2023-04-25T11:03:41;100480.84;;;3.70;23.85
63339;BME280;47485;51.378;-1.342;2023-04-25T11:06:18;100476.54;;;3.33;22.66
63339;BME280;47485;51.378;-1.342;2023-04-25T11:08:48;100475.74;;;7.08;22.15
63339;BME280;47485;51.378;-1.342;2023-04-25T11:11:16;100473.22;;;6.27;22.24
63339;BME280;47485;51.378;-1.342;2023-04-25T11:13:44;100477.23;;;5.28;22.94
63339;BME280;47485;51.378;-1.342;2023-04-25T11:16:10;100481.34;;;2.53;23.02
63339;BME280;47485;51.378;-1.342;2023-04-25T11:18:37;100488.27;;;2.23;24.09
63339;BME280;47485;51.378;-1.342;2023-04-25T11:21:06;100489.84;;;3.00;23.15
63339;BME280;47485;51.378;-1.342;2023-04-25T11:23:34;100481.92;;;6.44;21.17
63339;BME280;47485;51.378;-1.342;2023-04-25T11:26:02;100480.47;;;5.62;20.78
63339;BME280;47485;51.378;-1.342;2023-04-25T11:28:29;100481.98;;;4.32;22.70
63339;BME280;47485;51.378;-1.342;2023-04-25T11:30:56;100494.07;;;1.20;23.75
63339;BME280;47485;51.378;-1.342;2023-04-25T11:33:23;100490.11;;;3.60;22.94
63339;BME280;47485;51.378;-1.342;2023-04-25T11:35:53;100482.74;;;6.65;21.02
63339;BME280;47485;51.378;-1.342;2023-04-25T11:38:20;100483.82;;;4.18;21.77
63339;BME280;47485;51.378;-1.342;2023-04-25T11:40:50;100488.03;;;4.87;22.83
63339;BME280;47485;51.378;-1.342;2023-04-25T11:43:17;100485.51;;;6.34;21.75
63339;BME280;47485;51.378;-1.342;2023-04-25T11:45:47;100485.86;;;2.39;24.56
63339;BME280;47485;51.378;-1.342;2023-04-25T11:48:14;100485.60;;;3.29;23.05
63339;BME280;47485;51.378;-1.342;2023-04-25T11:50:41;100479.43;;;6.76;21.85
63339;BME280;47485;51.378;-1.342;2023-04-25T11:53:08;100484.23;;;2.31;22.73
63339;BME280;47485;51.378;-1.342;2023-04-25T11:55:35;100479.84;;;5.75;22.55
63339;BME280;47485;51.378;-1.342;2023-04-25T11:58:03;100482.02;;;5.26;22.51
63339;BME280;47485;51.378;-1.342;2023-04-25T12:00:30;100487.16;;;3.69;21.37
63339;BME280;47485;51.378;-1.342;2023-04-25T12:02:58;100478.24;;;4.09;20.72
63339;BME280;47485;51.378;-1.342;2023-04-25T12:05:26;100474.03;;;2.30;21.11
63339;BME280;47485;51.378;-1.342;2023-04-25T12:07:53;100474.64;;;4.98;20.79
63339;BME280;47485;51.378;-1.342;2023-04-25T12:10:21;100483.25;;;3.01;21.74
63339;BME280;47485;51.378;-1.342;2023-04-25T12:12:48;100487.52;;;2.60;22.41
63339;BME280;47485;51.378;-1.342;2023-04-25T12:15:16;100485.69;;;4.17;22.56
63339;BME280;47485;51.378;-1.342;2023-04-25T12:17:45;100480.13;;;6.30;20.56
63339;BME280;47485;51.378;-1.342;2023-04-25T12:20:14;100481.49;;;5.84;19.76
63339;BME280;47485;51.378;-1.342;2023-04-25T12:22:41;100485.27;;;5.40;19.46
63339;BME280;47485;51.378;-1.342;2023-04-25T12:25:09;100488.24;;;6.17;19.07
63339;BME280;47485;51.378;-1.342;2023-04-25T12:27:35;100499.52;;;4.80;20.07
63339;BME280;47485;51.378;-1.342;2023-04-25T12:30:03;100502.21;;;3.98;20.39
63339;BME280;47485;51.378;-1.342;2023-04-25T12:32:30;100497.34;;;7.57;19.80
63339;BME280;47485;51.378;-1.342;2023-04-25T12:34:57;100496.98;;;7.93;18.59
63339;BME280;47485;51.378;-1.342;2023-04-25T12:37:23;100497.30;;;8.73;19.52
63339;BME280;47485;51.378;-1.342;2023-04-25T12:39:50;100494.72;;;8.93;17.52
63339;BME280;47485;51.378;-1.342;2023-04-25T12:42:17;100495.79;;;6.28;19.41
63339;BME280;47485;51.378;-1.342;2023-04-25T12:44:44;100497.64;;;9.51;19.83
63339;BME280;47485;51.378;-1.342;2023-04-25T12:47:11;100506.34;;;8.04;18.38
63339;BME280;47485;51.378;-1.342;2023-04-25T12:49:37;100505.91;;;6.48;19.02
63339;BME280;47485;51.378;-1.342;2023-04-25T12:52:04;100504.29;;;4.94;21.35